Latest Weather Observations for Coolangatta

IDQ60901

Issued at 8:21 pm EST Friday 13 December 2019 (issued every 10 minutes, with the page automatically refreshed every 10 minutes)

About weather observations | Map of Brisbane area stations | Latest observations for Brisbane area | Other Formats
Station Details ID: 040717 Name: COOLANGATTA Lat: -28.17 Lon: 153.51 Height: 4.0 m
Data from the previous 72 hours. | See also: Recent months at Coolangatta
Date/Time
EST
Temp
°C
App
Temp
°C
Dew
Point
°C
Rel
Hum
%
Delta-T
°C
Wind Press
QNH
hPa
Press
MSL
hPa
Rain since
9am
mm
Dir  Spd
km/h
Gust
km/h
Spd
kts
Gust
kts
13/08:00pm 20.8 22.2 18.6 87 1.4 WNW 9 11 5 6 1011.4 1011.3 21.8
13/07:30pm 21.0 23.4 18.8 87 1.4 NW 4 9 2 5 1011.2 1011.1 21.8
13/07:00pm 21.7 23.2 18.9 84 1.8 NNW 9 11 5 6 1010.8 1010.7 21.8
13/06:30pm 22.0 23.4 18.6 81 2.1 NNW 9 13 5 7 1011.1 1011.0 21.8
13/06:00pm 22.5 23.9 18.7 79 2.4 NW 9 11 5 6 1010.5 1010.4 21.8
13/05:30pm 23.1 23.0 18.8 77 2.7 N 17 22 9 12 1010.2 1010.1 21.8
13/05:00pm 23.5 24.3 19.0 76 2.9 NNE 13 15 7 8 1010.3 1010.2 21.8
13/04:30pm 23.2 24.5 18.5 75 3.0 NE 9 13 5 7 1010.7 1010.6 21.8
13/04:00pm 23.9 24.7 19.0 74 3.1 NE 13 20 7 11 1010.0 1009.9 21.8
13/03:30pm 23.2 23.7 19.2 78 2.5 ENE 15 19 8 10 1010.5 1010.4 21.8
13/03:16pm 22.5 23.7 19.1 81 2.2 ENE 11 17 6 9 1010.8 1010.7 21.8
13/03:00pm 22.0 24.2 19.5 86 1.6 SE 7 13 4 7 1010.3 1010.2 21.8
13/02:47pm 22.2 23.7 19.7 86 1.6 SE 11 17 6 9 1010.6 1010.5 21.8
13/02:30pm 21.7 22.3 18.7 83 1.9 ESE 13 20 7 11 1010.8 1010.7 21.6
13/02:00pm 21.4 21.0 19.3 88 1.3 E 20 32 11 17 1010.7 1010.6 21.6
13/01:37pm 20.6 17.4 18.5 88 1.3 E 33 44 18 24 1010.9 1010.8 21.4
13/01:30pm 21.2 18.1 18.8 86 1.5 ENE 33 46 18 25 1010.6 1010.5 21.2
13/01:19pm 22.3 20.6 19.7 85 1.7 ENE 28 33 15 18 1010.4 1010.3 21.0
13/01:05pm 21.9 19.3 19.5 86 1.5 E 32 43 17 23 1010.8 1010.7 21.0
13/01:00pm 21.5 18.5 18.7 84 1.8 E 32 43 17 23 1010.8 1010.7 21.0
13/12:58pm 21.5 18.5 18.7 84 1.8 E 32 43 17 23 1010.8 1010.7 21.0
13/12:54pm 21.7 19.3 19.1 85 1.6 E 30 41 16 22 1010.6 1010.5 21.0
13/12:43pm 21.9 21.6 20.4 91 1.0 ESE 22 28 12 15 1010.8 1010.7 21.0
13/12:33pm 21.8 22.6 20.6 93 0.8 ESE 17 30 9 16 1011.0 1010.9 21.0
13/12:31pm 21.8 22.6 20.6 93 0.8 ESE 17 30 9 16 1011.2 1011.1 21.0
13/12:30pm 21.8 23.0 20.6 93 0.8 ESE 15 30 8 16 1011.2 1011.1 21.0
13/12:12pm 22.1 22.9 20.6 91 1.0 ESE 17 24 9 13 1011.0 1010.9 20.8
13/12:11pm 22.0 23.1 20.5 91 1.0 ESE 15 24 8 13 1011.0 1010.9 20.4
13/12:00pm 22.1 23.3 20.6 91 1.0 ESE 15 20 8 11 1011.2 1011.1 20.2
13/11:43am 21.9 22.8 20.9 94 0.7 ESE 17 22 9 12 1011.3 1011.2 20.2
13/11:30am 21.6 21.9 20.4 93 0.8 SE 19 28 10 15 1011.2 1011.1 20.0
13/11:22am 21.9 22.2 20.5 92 0.9 SE 19 26 10 14 1011.2 1011.1 19.2
13/11:18am 22.6 23.8 21.4 93 0.8 SSE 17 26 9 14 1011.1 1011.0 17.8
13/11:12am 23.0 24.9 22.0 94 0.7 S 15 20 8 11 1011.1 1011.0 13.0
13/11:10am 23.1 24.9 21.9 93 0.8 SSW 15 20 8 11 1011.1 1011.0 12.8
13/11:00am 23.2 26.2 22.0 93 0.8 SSW 9 15 5 8 1011.1 1011.0 9.4
13/10:57am 23.4 27.1 22.2 93 0.8 SW 6 9 3 5 1011.2 1011.1 9.2
13/10:51am 23.3 27.7 22.1 93 0.8 WSW 2 7 1 4 1011.3 1011.2 8.8
13/10:34am 23.2 26.8 22.4 95 0.5 W 7 11 4 6 1011.3 1011.2 8.6
13/10:30am 23.2 26.8 22.4 95 0.5 WSW 7 11 4 6 1011.3 1011.2 8.6
13/10:27am 23.2 26.8 22.4 95 0.5 SW 7 9 4 5 1011.2 1011.1 8.6
13/10:19am 22.8 25.8 22.0 95 0.5 W 9 13 5 7 1011.2 1011.1 8.6
13/10:17am 22.8 25.8 22.0 95 0.5 W 9 13 5 7 1011.2 1011.1 8.6
13/10:11am 22.7 25.6 21.7 94 0.7 W 9 17 5 9 1011.2 1011.1 7.8
13/10:00am 22.8 25.0 21.8 94 0.7 SW 13 20 7 11 1011.3 1011.2 6.6
13/09:55am 22.7 24.7 21.5 93 0.8 SW 13 20 7 11 1011.3 1011.2 5.8
13/09:52am 22.7 24.7 21.5 93 0.8 SW 13 20 7 11 1011.3 1011.2 5.6
13/09:42am 23.0 26.0 22.0 94 0.7 WSW 9 13 5 7 1011.5 1011.4 3.6
13/09:41am 23.0 26.0 22.0 94 0.7 WSW 9 13 5 7 1011.5 1011.4 3.6
13/09:39am 23.1 26.6 22.1 94 0.7 WSW 7 13 4 7 1011.5 1011.4 3.0
13/09:31am 23.1 26.6 22.1 94 0.7 SSW 7 9 4 5 1011.4 1011.3 3.0
13/09:30am 23.1 26.6 22.1 94 0.7 SSW 7 9 4 5 1011.4 1011.3 3.0
13/09:00am 23.1 26.9 21.7 92 0.9 SSW 4 9 2 5 1011.5 1011.4 3.6
13/08:44am 23.4 27.0 22.0 92 0.9 S 6 9 3 5 1011.6 1011.5 1.6
13/08:30am 23.3 26.2 21.7 91 1.1 SW 9 13 5 7 1011.6 1011.5 0.8
13/08:00am 23.1 25.0 21.4 90 1.1 S 13 17 7 9 1011.5 1011.4 0.6
13/07:33am 23.3 25.3 21.6 90 1.1 SE 13 17 7 9 1011.7 1011.6 0.6
13/07:30am 23.2 25.2 21.5 90 1.1 SE 13 17 7 9 1011.7 1011.6 0.6
13/07:14am 23.3 24.9 21.4 89 1.3 SE 15 19 8 10 1011.6 1011.5 0.6
13/07:04am 23.4 24.4 21.1 87 1.5 SE 17 20 9 11 1011.6 1011.5 0.6
13/07:00am 23.6 24.7 21.3 87 1.5 ESE 17 19 9 10 1011.6 1011.5 0.6
13/06:45am 24.3 27.7 21.6 85 1.8 SE 6 11 3 6 1011.7 1011.6 0.6
13/06:30am 24.1 28.5 21.4 85 1.8 CALM 0 0 0 0 1011.5 1011.4 0.6
13/06:00am 24.0 28.7 21.9 88 1.4 CALM 0 0 0 0 1011.2 1011.1 0.6
13/05:30am 23.7 28.4 22.0 90 1.1 CALM 0 0 0 0 1010.9 1010.8 0.6
13/05:00am 23.5 27.3 21.6 89 1.3 WNW 4 9 2 5 1010.5 1010.4 0.6
13/04:30am 23.5 26.7 21.6 89 1.3 NW 7 13 4 7 1010.3 1010.2 0.6
13/04:00am 23.5 26.8 21.8 90 1.1 WNW 7 9 4 5 1010.3 1010.2 0.6
13/03:30am 24.0 27.1 22.1 89 1.3 N 9 13 5 7 1010.3 1010.2 0.6
13/03:00am 24.2 27.3 22.1 88 1.4 N 9 11 5 6 1010.2 1010.1 0.6
13/02:55am 24.2 27.5 21.9 87 1.5 N 7 9 4 5 1010.2 1010.1 0.6
13/02:37am 24.4 27.4 21.9 86 1.7 N 9 11 5 6 1010.3 1010.2 0.4
13/02:30am 24.5 27.6 21.4 83 2.0 N 7 11 4 6 1010.4 1010.3 0.0
13/02:00am 24.4 27.5 21.5 84 1.9 NNE 7 11 4 6 1010.2 1010.1 0.0
13/01:30am 24.5 26.9 21.6 84 1.9 N 11 13 6 7 1010.4 1010.3 0.0
13/01:00am 24.5 27.0 21.8 85 1.8 N 11 13 6 7 1010.4 1010.3 0.0
13/12:30am 24.7 26.5 21.8 84 1.9 N 15 17 8 9 1010.7 1010.6 0.0
13/12:00am 24.8 27.3 21.7 83 2.1 NNW 11 17 6 9 1011.4 1011.3 0.0
 
Date/Time
EST
Temp
°C
App
Temp
°C
Dew
Point
°C
Rel
Hum
%
Delta-T
°C
Wind Press
QNH
hPa
Press
MSL
hPa
Rain since
9am
mm
Dir  Spd
km/h
Gust
km/h
Spd
kts
Gust
kts
12/11:30pm 24.7 27.5 21.6 83 2.1 NNW 9 13 5 7 1011.7 1011.6 0.0
12/11:00pm 24.6 26.6 21.5 83 2.1 N 13 15 7 8 1011.5 1011.4 0.0
12/10:30pm 24.8 27.4 21.9 84 1.9 N 11 15 6 8 1012.0 1011.9 0.0
12/10:00pm 25.2 26.6 21.9 82 2.2 N 17 22 9 12 1012.2 1012.1 0.0
12/09:30pm 25.2 27.5 22.1 83 2.1 N 13 15 7 8 1012.1 1012.0 0.0
12/09:00pm 24.9 28.5 22.0 84 1.9 NNW 6 7 3 4 1012.1 1012.0 0.0
12/08:30pm 24.9 28.0 22.2 85 1.8 N 9 11 5 6 1011.4 1011.3 0.0
12/08:00pm 25.0 27.6 21.9 83 2.1 NNW 11 15 6 8 1011.3 1011.2 0.0
12/07:30pm 25.2 26.1 21.5 80 2.5 N 19 26 10 14 1011.1 1011.0 0.0
12/07:00pm 25.0 26.8 21.9 83 2.1 NE 15 22 8 12 1010.1 1010.0 0.0
12/06:30pm 25.3 27.8 21.8 81 2.3 N 11 17 6 9 1010.9 1010.8 0.0
12/06:00pm 25.4 27.6 21.9 81 2.3 N 13 19 7 10 1010.9 1010.8 0.0
12/05:30pm 25.5 28.4 21.8 80 2.5 N 9 15 5 8 1010.0 1009.9 0.0
12/05:00pm 25.8 28.0 21.9 79 2.6 N 13 17 7 9 1009.4 1009.3 0.0
12/04:30pm 25.9 27.7 21.8 78 2.7 NNE 15 20 8 11 1008.8 1008.7 0.0
12/04:00pm 27.4 29.5 22.4 74 3.4 NNE 15 20 8 11 1009.0 1008.9 0.0
12/03:30pm 27.3 28.1 21.8 72 3.7 NNE 20 28 11 15 1009.2 1009.1 0.0
12/03:00pm 27.6 28.4 21.4 69 4.1 NNE 19 26 10 14 1009.4 1009.3 0.0
12/02:30pm 27.5 28.5 21.8 71 3.8 NNE 19 24 10 13 1009.5 1009.4 0.0
12/02:00pm 27.9 28.9 22.2 71 3.8 NNE 20 28 11 15 1009.6 1009.5 0.0
12/01:30pm 29.1 29.8 22.3 66 4.6 NNE 22 28 12 15 1009.6 1009.5 0.0
12/01:00pm 28.9 29.4 21.9 66 4.7 NNE 22 28 12 15 1009.7 1009.6 0.0
12/12:30pm 28.1 28.3 21.4 67 4.5 NNE 22 30 12 16 1010.1 1010.0 0.0
12/12:00pm 27.8 27.0 20.9 66 4.6 NNE 26 32 14 17 1010.3 1010.2 0.0
12/11:30am 27.8 27.2 20.4 64 4.9 NNE 24 28 13 15 1010.6 1010.5 0.0
12/11:00am 27.7 27.1 19.8 62 5.2 NE 22 28 12 15 1011.0 1010.9 0.0
12/10:30am 28.0 27.4 19.8 61 5.3 NNE 22 26 12 14 1011.1 1011.0 0.0
12/10:00am 28.2 28.0 19.7 60 5.5 NNE 20 24 11 13 1011.4 1011.3 0.0
12/09:30am 27.6 28.0 18.9 59 5.6 NNE 15 20 8 11 1011.5 1011.4 0.0
12/09:00am 27.5 27.8 18.8 59 5.6 NNE 15 19 8 10 1011.6 1011.5 0.6
12/08:30am 27.5 28.3 19.0 59 5.5 N 13 20 7 11 1011.6 1011.5 0.6
12/08:00am 26.8 27.4 18.6 60 5.2 NNW 13 22 7 12 1011.7 1011.6 0.6
12/07:30am 26.2 27.4 18.3 61 5.0 N 9 13 5 7 1011.5 1011.4 0.6
12/07:00am 25.1 25.5 18.1 65 4.4 NNE 13 17 7 9 1011.3 1011.2 0.6
12/06:30am 24.8 25.4 18.5 68 4.0 NNE 13 17 7 9 1010.8 1010.7 0.6
12/06:00am 23.8 25.6 20.3 81 2.3 N 11 13 6 7 1010.4 1010.3 0.6
12/05:30am 23.1 24.7 19.9 82 2.1 N 11 13 6 7 1010.1 1010.0 0.6
12/05:00am 23.4 25.1 20.2 82 2.1 NNE 11 15 6 8 1009.8 1009.7 0.6
12/04:30am 23.4 25.7 19.8 80 2.3 N 7 11 4 6 1009.7 1009.6 0.6
12/04:00am 23.9 25.6 19.4 76 2.9 NNW 9 13 5 7 1009.4 1009.3 0.6
12/03:30am 23.9 26.0 19.4 76 2.9 NW 7 11 4 6 1009.1 1009.0 0.6
12/03:00am 24.0 25.7 19.3 75 3.0 NW 9 13 5 7 1008.7 1008.6 0.6
12/02:30am 24.3 24.2 19.6 75 3.0 NNW 19 26 10 14 1008.3 1008.2 0.6
12/02:00am 24.5 22.8 19.8 75 3.0 NNW 28 46 15 25 1007.7 1007.6 0.6
12/01:54am 24.0 21.7 20.1 79 2.5 NNW 32 50 17 27 1007.7 1007.6 0.6
12/01:50am 24.0 22.4 20.1 79 2.5 NNW 28 50 15 27 1007.2 1007.1 0.4
12/01:40am 23.4 21.2 20.7 85 1.8 N 33 52 18 28 1007.9 1007.8 0.4
12/01:39am 23.4 20.4 20.7 85 1.8 N 37 56 20 30 1007.9 1007.8 0.4
12/01:30am 23.2 18.9 20.7 86 1.6 N 44 57 24 31 1007.8 1007.7 0.4
12/01:29am 23.2 18.9 20.7 86 1.6 N 44 57 24 31 1008.0 1007.9 0.4
12/01:00am 22.4 19.7 19.2 82 2.0 N 32 43 17 23 1010.0 1009.9 0.4
12/12:30am 23.0 21.6 19.6 81 2.2 NNW 26 35 14 19 1011.6 1011.5 0.4
12/12:00am 21.8 22.6 19.0 84 1.8 NNW 13 17 7 9 1012.8 1012.7 0.4
 
Date/Time
EST
Temp
°C
App
Temp
°C
Dew
Point
°C
Rel
Hum
%
Delta-T
°C
Wind Press
QNH
hPa
Press
MSL
hPa
Rain since
9am
mm
Dir  Spd
km/h
Gust
km/h
Spd
kts
Gust
kts
11/11:30pm 21.1 21.3 17.7 81 2.1 N 13 15 7 8 1013.7 1013.6 0.4
11/11:00pm 21.5 23.0 18.1 81 2.1 WSW 7 17 4 9 1014.2 1014.1 0.4
11/10:31pm 21.2 20.7 17.8 81 2.1 WSW 17 30 9 16 1015.2 1015.1 0.4
11/10:30pm 21.2 20.7 17.8 81 2.1 WSW 17 30 9 16 1015.2 1015.1 0.4
11/10:21pm 21.4 20.2 17.4 78 2.5 SW 20 32 11 17 1015.6 1015.5 0.2
11/10:02pm 22.9 19.6 16.0 65 4.2 SSW 28 54 15 29 1015.6 1015.5 0.0
11/10:00pm 22.9 20.4 16.2 66 4.1 SSW 24 48 13 26 1015.5 1015.4 0.0
11/09:36pm 24.6 21.9 17.6 65 4.4 SW 28 46 15 25 1016.0 1015.9 0.0
11/09:31pm 24.8 22.5 17.5 64 4.6 SW 26 46 14 25 1016.0 1015.9 0.0
11/09:30pm 24.9 23.0 17.6 64 4.6 WSW 24 46 13 25 1015.9 1015.8 0.0
11/09:26pm 25.0 24.2 18.0 65 4.4 W 19 39 10 21 1015.8 1015.7 0.0
11/09:08pm 25.2 28.2 21.9 82 2.2 NNW 9 15 5 8 1015.1 1015.0 0.0
11/09:00pm 25.1 28.0 21.8 82 2.2 NNW 9 13 5 7 1014.9 1014.8 0.0
11/08:58pm 25.1 28.0 21.8 82 2.2 NNW 9 11 5 6 1014.8 1014.7 0.0
11/08:37pm 25.0 28.0 21.9 83 2.1 WNW 9 13 5 7 1014.6 1014.5 0.0
11/08:30pm 25.0 27.6 21.9 83 2.1 NNW 11 19 6 10 1014.2 1014.1 0.0
11/08:27pm 25.0 27.2 21.9 83 2.1 NNW 13 19 7 10 1013.9 1013.8 0.0
11/08:00pm 24.8 26.2 21.9 84 1.9 NNW 17 22 9 12 1013.4 1013.3 0.0
11/07:30pm 24.7 25.7 21.8 84 1.9 NNW 19 26 10 14 1012.7 1012.6 0.0
11/07:00pm 24.6 26.2 22.1 86 1.7 NNW 17 24 9 13 1011.8 1011.7 0.0
11/06:30pm 25.0 25.6 22.1 84 1.9 N 22 28 12 15 1011.3 1011.2 0.0
11/06:00pm 25.4 26.5 22.3 83 2.1 N 20 32 11 17 1011.4 1011.3 0.0
11/05:30pm 25.9 27.2 22.4 81 2.4 N 19 22 10 12 1010.9 1010.8 0.0
11/05:01pm 26.3 27.9 22.8 81 2.4 N 19 26 10 14 1010.5 1010.4 0.0
11/05:00pm 26.1 27.2 22.4 80 2.5 N 20 26 11 14 1010.5 1010.4 0.0
11/04:30pm 26.3 27.5 22.2 78 2.8 N 19 24 10 13 1009.7 1009.6 0.0
11/04:00pm 26.7 28.1 22.5 78 2.8 N 19 24 10 13 1010.0 1009.9 0.0
11/03:30pm 26.6 27.6 22.2 77 3.0 N 20 30 11 16 1010.2 1010.1 0.0
11/03:00pm 27.1 27.4 22.3 75 3.2 N 24 30 13 16 1010.3 1010.2 0.0
11/02:30pm 27.3 27.1 22.0 73 3.6 NNE 26 33 14 18 1010.6 1010.5 0.0
11/02:00pm 28.4 28.3 22.2 69 4.2 NNE 26 32 14 17 1011.0 1010.9 0.0
11/01:30pm 28.0 27.9 21.5 67 4.3 NNE 24 32 13 17 1011.1 1011.0 0.0
11/01:00pm 28.1 27.5 20.6 63 5.0 NNE 24 32 13 17 1011.3 1011.2 0.0
11/12:30pm 29.6 30.2 21.3 61 5.6 N 20 26 11 14 1011.7 1011.6 0.0
11/12:00pm 28.4 28.3 21.4 66 4.7 N 24 33 13 18 1011.8 1011.7 0.0
11/11:30am 28.2 28.0 21.2 65 4.7 N 24 30 13 16 1012.0 1011.9 0.0
11/11:00am 28.5 28.8 21.5 66 4.7 N 22 28 12 15 1012.4 1012.3 0.0
11/10:30am 28.0 27.3 21.1 66 4.6 N 26 30 14 16 1012.3 1012.2 0.0
11/10:00am 27.5 26.9 21.3 69 4.1 N 26 33 14 18 1012.6 1012.5 0.0
11/09:30am 27.1 26.2 21.4 71 3.8 N 28 33 15 18 1012.8 1012.7 0.0
11/09:00am 26.8 26.8 21.6 73 3.5 N 24 32 13 17 1013.3 1013.2 0.0
11/08:30am 26.4 26.6 21.4 74 3.3 N 22 28 12 15 1013.5 1013.4 0.0
11/08:00am 26.9 27.8 21.6 72 3.5 N 19 24 10 13 1013.5 1013.4 0.0
11/07:30am 25.8 27.0 20.6 73 3.4 N 15 20 8 11 1013.8 1013.7 0.0
11/07:00am 26.1 29.0 19.0 65 4.5 E 2 7 1 4 1014.2 1014.1 0.0
11/06:30am 25.5 28.6 19.4 69 3.9 NW 2 7 1 4 1014.3 1014.2 0.0
11/06:00am 24.6 27.7 20.3 77 2.8 W 4 9 2 5 1014.1 1014.0 0.0
11/05:30am 24.1 26.7 20.4 80 2.4 WNW 7 11 4 6 1013.6 1013.5 0.0
11/05:00am 23.9 25.0 20.4 81 2.3 NNW 15 20 8 11 1012.2 1012.1 0.0
11/04:30am 23.8 25.3 20.5 82 2.1 NNW 13 15 7 8 1012.0 1011.9 0.0
11/04:00am 24.3 25.2 20.8 81 2.3 NNW 17 22 9 12 1011.6 1011.5 0.0
11/03:30am 24.6 25.1 21.1 81 2.3 NW 20 30 11 16 1011.3 1011.2 0.0
11/03:00am 24.6 26.0 21.1 81 2.3 NNW 15 22 8 12 1011.6 1011.5 0.0
11/02:30am 24.1 26.5 20.8 82 2.2 NW 9 20 5 11 1011.7 1011.6 0.0
11/02:18am 24.0 26.0 20.7 82 2.2 NW 11 17 6 9 1011.7 1011.6 0.0
11/02:00am 24.2 25.0 20.7 81 2.3 NW 17 32 9 17 1011.7 1011.6 0.0
11/01:54am 24.2 24.7 20.9 82 2.2 NNW 19 32 10 17 1011.7 1011.6 0.0
11/01:30am 24.1 24.1 21.6 86 1.7 NNW 24 35 13 19 1011.2 1011.1 0.0
11/01:00am 24.2 24.1 21.5 85 1.8 N 24 32 13 17 1011.0 1010.9 0.0
11/12:30am 24.2 24.5 21.5 85 1.8 NNW 22 28 12 15 1012.4 1012.3 0.0
11/12:00am 24.3 24.8 21.2 83 2.0 N 20 24 11 13 1013.6 1013.5 0.0
 
Date/Time
EST
Temp
°C
App
Temp
°C
Dew
Point
°C
Rel
Hum
%
Delta-T
°C
Wind Press
QNH
hPa
Press
MSL
hPa
Rain since
9am
mm
Dir  Spd
km/h
Gust
km/h
Spd
kts
Gust
kts
10/11:30pm 24.3 25.7 21.0 82 2.2 N 15 19 8 10 1014.8 1014.7 0.0
10/11:00pm 24.9 26.4 20.6 77 2.8 N 13 17 7 9 1015.2 1015.1 0.0
10/10:30pm 25.4 26.6 19.8 71 3.6 N 13 22 7 12 1015.9 1015.8 0.0
10/10:12pm 25.1 27.4 19.9 73 3.4 NNW 7 11 4 6 1016.2 1016.1 0.0
10/10:02pm 25.1 27.0 19.7 72 3.5 NW 9 15 5 8 1016.5 1016.4 0.0
10/10:00pm 25.3 27.5 20.3 74 3.3 NW 9 13 5 7 1016.6 1016.5 0.0
10/09:37pm 25.0 25.6 21.1 79 2.6 WNW 19 28 10 15 1017.4 1017.3 0.0
10/09:30pm 24.8 25.1 21.5 82 2.2 N 22 30 12 16 1015.4 1015.3 0.0
10/09:00pm 24.7 25.3 21.4 82 2.2 NNW 20 28 11 15 1014.8 1014.7 0.0
10/08:30pm 24.8 24.6 21.3 81 2.3 N 24 32 13 17 1014.4 1014.3 0.0

Latest Capital City Observations: Canberra | Sydney | Melbourne | Brisbane | Adelaide | Perth | Hobart | Darwin

Other formats

Comma delimited format used in spreadsheet applications
http://www.bom.gov.au/fwo/IDQ60901/IDQ60901.94592.axf

JavaScript Object Notation format (JSON) in row-major order
http://www.bom.gov.au/fwo/IDQ60901/IDQ60901.94592.json

Data quality

Most of these data are generated automatically and are frequently updated. Quality checks on data are not normally performed. It is possible for incorrect values to appear. Refer to information at About Latest Weather Observations and please check the disclaimer before using these data.